sensor_id;sensor_type;location;lat;lon;timestamp;pressure;altitude;pressure_sealevel;temperature;humidity
34297;BME280;20564;42.902;25.336;2023-04-30T00:01:37;96934.94;;;9.55;100.00
34297;BME280;20564;42.902;25.336;2023-04-30T00:04:14;96941.28;;;9.53;98.52
34297;BME280;20564;42.902;25.336;2023-04-30T00:06:42;96944.47;;;9.47;98.92
34297;BME280;20564;42.902;25.336;2023-04-30T00:09:09;96936.88;;;9.44;100.00
34297;BME280;20564;42.902;25.336;2023-04-30T00:11:38;96933.28;;;9.45;99.74
34297;BME280;20564;42.902;25.336;2023-04-30T00:14:06;96932.03;;;9.49;100.00
34297;BME280;20564;42.902;25.336;2023-04-30T00:16:33;96922.22;;;9.51;100.00
34297;BME280;20564;42.902;25.336;2023-04-30T00:19:00;96919.72;;;9.49;100.00
34297;BME280;20564;42.902;25.336;2023-04-30T00:21:28;96919.59;;;9.51;100.00
34297;BME280;20564;42.902;25.336;2023-04-30T00:23:56;96920.53;;;9.50;100.00
34297;BME280;20564;42.902;25.336;2023-04-30T00:26:26;96923.28;;;9.58;100.00
34297;BME280;20564;42.902;25.336;2023-04-30T00:28:54;96920.38;;;9.61;100.00
34297;BME280;20564;42.902;25.336;2023-04-30T00:31:21;96926.34;;;9.63;100.00
34297;BME280;20564;42.902;25.336;2023-04-30T00:33:50;96916.13;;;9.60;100.00
34297;BME280;20564;42.902;25.336;2023-04-30T00:36:17;96923.59;;;9.55;100.00
34297;BME280;20564;42.902;25.336;2023-04-30T00:38:55;96928.44;;;9.50;100.00
34297;BME280;20564;42.902;25.336;2023-04-30T00:41:23;96927.19;;;9.54;100.00
34297;BME280;20564;42.902;25.336;2023-04-30T00:43:52;96922.50;;;9.48;100.00
34297;BME280;20564;42.902;25.336;2023-04-30T00:46:19;96923.88;;;9.52;100.00
34297;BME280;20564;42.902;25.336;2023-04-30T00:48:47;96920.69;;;9.48;100.00
34297;BME280;20564;42.902;25.336;2023-04-30T00:51:15;96922.22;;;9.51;100.00
34297;BME280;20564;42.902;25.336;2023-04-30T00:53:42;96921.13;;;9.44;100.00
34297;BME280;20564;42.902;25.336;2023-04-30T00:56:12;96925.69;;;9.41;100.00
34297;BME280;20564;42.902;25.336;2023-04-30T00:58:45;96920.81;;;9.47;100.00
34297;BME280;20564;42.902;25.336;2023-04-30T01:01:14;96926.22;;;9.45;100.00
34297;BME280;20564;42.902;25.336;2023-04-30T01:03:42;96916.97;;;9.41;100.00
34297;BME280;20564;42.902;25.336;2023-04-30T01:06:13;96915.88;;;9.44;100.00
34297;BME280;20564;42.902;25.336;2023-04-30T01:08:40;96913.25;;;9.44;100.00
34297;BME280;20564;42.902;25.336;2023-04-30T01:16:26;96909.53;;;9.36;100.00
34297;BME280;20564;42.902;25.336;2023-04-30T01:19:08;96903.69;;;9.42;100.00
34297;BME280;20564;42.902;25.336;2023-04-30T01:21:39;96910.03;;;9.50;100.00
34297;BME280;20564;42.902;25.336;2023-04-30T01:24:31;96909.22;;;9.39;100.00
34297;BME280;20564;42.902;25.336;2023-04-30T01:27:29;96898.72;;;9.49;100.00
34297;BME280;20564;42.902;25.336;2023-04-30T01:29:58;96902.44;;;9.47;100.00
34297;BME280;20564;42.902;25.336;2023-04-30T01:32:28;96891.53;;;9.41;100.00
34297;BME280;20564;42.902;25.336;2023-04-30T01:34:55;96903.97;;;9.39;100.00
34297;BME280;20564;42.902;25.336;2023-04-30T01:37:36;96903.97;;;9.39;100.00
34297;BME280;20564;42.902;25.336;2023-04-30T01:40:24;96901.88;;;9.43;100.00
34297;BME280;20564;42.902;25.336;2023-04-30T01:43:11;96898.59;;;9.41;100.00
34297;BME280;20564;42.902;25.336;2023-04-30T01:53:48;96899.13;;;9.35;100.00
34297;BME280;20564;42.902;25.336;2023-04-30T01:56:20;96905.09;;;9.37;100.00
34297;BME280;20564;42.902;25.336;2023-04-30T01:58:53;96900.66;;;9.37;100.00
34297;BME280;20564;42.902;25.336;2023-04-30T02:01:29;96901.50;;;9.38;100.00
34297;BME280;20564;42.902;25.336;2023-04-30T02:03:58;96894.44;;;9.38;100.00
34297;BME280;20564;42.902;25.336;2023-04-30T02:06:26;96894.44;;;9.38;100.00
34297;BME280;20564;42.902;25.336;2023-04-30T02:08:57;96904.94;;;9.38;100.00
34297;BME280;20564;42.902;25.336;2023-04-30T02:11:29;96897.22;;;9.37;100.00
34297;BME280;20564;42.902;25.336;2023-04-30T02:13:57;96899.25;;;9.43;100.00
34297;BME280;20564;42.902;25.336;2023-04-30T02:16:25;96901.06;;;9.42;100.00
34297;BME280;20564;42.902;25.336;2023-04-30T02:18:52;96904.38;;;9.45;100.00
34297;BME280;20564;42.902;25.336;2023-04-30T02:21:19;96903.97;;;9.39;100.00
34297;BME280;20564;42.902;25.336;2023-04-30T02:23:47;96907.28;;;9.32;100.00
34297;BME280;20564;42.902;25.336;2023-04-30T02:26:15;96897.91;;;9.29;100.00
34297;BME280;20564;42.902;25.336;2023-04-30T02:28:46;96903.16;;;9.29;100.00
34297;BME280;20564;42.902;25.336;2023-04-30T02:31:14;96900.25;;;9.23;100.00
34297;BME280;20564;42.902;25.336;2023-04-30T02:33:43;96901.78;;;9.25;100.00
34297;BME280;20564;42.902;25.336;2023-04-30T02:36:10;96901.47;;;9.28;100.00
34297;BME280;20564;42.902;25.336;2023-04-30T02:38:38;96899.28;;;9.24;100.00
34297;BME280;20564;42.902;25.336;2023-04-30T02:41:06;96900.09;;;9.24;100.00
34297;BME280;20564;42.902;25.336;2023-04-30T02:43:34;96902.88;;;9.23;100.00
34297;BME280;20564;42.902;25.336;2023-04-30T02:46:05;96900.09;;;9.24;100.00
34297;BME280;20564;42.902;25.336;2023-04-30T02:48:33;96903.16;;;9.29;100.00
34297;BME280;20564;42.902;25.336;2023-04-30T02:51:01;96899.41;;;9.32;100.00
34297;BME280;20564;42.902;25.336;2023-04-30T02:53:32;96901.22;;;9.31;100.00
34297;BME280;20564;42.902;25.336;2023-04-30T02:55:59;96902.47;;;9.27;100.00
34297;BME280;20564;42.902;25.336;2023-04-30T02:58:28;96895.41;;;9.28;100.00
34297;BME280;20564;42.902;25.336;2023-04-30T03:00:55;96894.84;;;9.34;100.00
34297;BME280;20564;42.902;25.336;2023-04-30T03:03:23;96901.91;;;9.33;100.00
34297;BME280;20564;42.902;25.336;2023-04-30T03:05:51;96901.47;;;9.28;100.00
34297;BME280;20564;42.902;25.336;2023-04-30T03:08:19;96907.97;;;9.24;100.00
34297;BME280;20564;42.902;25.336;2023-04-30T03:10:47;96903.97;;;9.20;100.00
34297;BME280;20564;42.902;25.336;2023-04-30T03:13:15;96905.25;;;9.26;100.00
34297;BME280;20564;42.902;25.336;2023-04-30T03:15:43;96910.88;;;9.21;100.00
34297;BME280;20564;42.902;25.336;2023-04-30T03:18:10;96903.72;;;9.23;100.00
34297;BME280;20564;42.902;25.336;2023-04-30T03:20:37;96906.88;;;9.17;100.00
34297;BME280;20564;42.902;25.336;2023-04-30T03:23:04;96914.91;;;9.15;100.00
34297;BME280;20564;42.902;25.336;2023-04-30T03:25:31;96915.03;;;9.14;100.00
34297;BME280;20564;42.902;25.336;2023-04-30T03:27:58;96911.19;;;9.18;100.00
34297;BME280;20564;42.902;25.336;2023-04-30T03:30:25;96913.94;;;9.26;100.00
34297;BME280;20564;42.902;25.336;2023-04-30T03:32:52;96912.69;;;9.30;100.00
34297;BME280;20564;42.902;25.336;2023-04-30T03:35:19;96916.41;;;9.28;100.00
34297;BME280;20564;42.902;25.336;2023-04-30T03:37:46;96921.94;;;9.25;100.00
34297;BME280;20564;42.902;25.336;2023-04-30T03:40:13;96920.72;;;9.29;100.00
34297;BME280;20564;42.902;25.336;2023-04-30T03:42:40;96930.81;;;9.33;100.00
34297;BME280;20564;42.902;25.336;2023-04-30T03:45:07;96927.75;;;9.38;100.00
34297;BME280;20564;42.902;25.336;2023-04-30T03:47:34;96924.31;;;9.37;100.00
34297;BME280;20564;42.902;25.336;2023-04-30T03:50:02;96931.09;;;9.40;100.00
34297;BME280;20564;42.902;25.336;2023-04-30T03:52:32;96941.16;;;9.45;100.00
34297;BME280;20564;42.902;25.336;2023-04-30T03:54:59;96928.84;;;9.45;100.00
34297;BME280;20564;42.902;25.336;2023-04-30T03:57:26;96931.47;;;9.55;100.00
34297;BME280;20564;42.902;25.336;2023-04-30T03:59:53;96938.13;;;9.59;100.00
34297;BME280;20564;42.902;25.336;2023-04-30T04:02:21;96934.34;;;9.71;100.00
34297;BME280;20564;42.902;25.336;2023-04-30T04:04:49;96953.44;;;9.73;100.00
34297;BME280;20564;42.902;25.336;2023-04-30T04:07:17;96944.03;;;9.80;100.00
34297;BME280;20564;42.902;25.336;2023-04-30T04:09:44;96941.50;;;9.88;100.00
34297;BME280;20564;42.902;25.336;2023-04-30T04:12:11;96941.09;;;9.93;100.00
34297;BME280;20564;42.902;25.336;2023-04-30T04:14:38;96930.44;;;9.95;100.00
34297;BME280;20564;42.902;25.336;2023-04-30T04:17:07;96940.66;;;9.98;100.00
34297;BME280;20564;42.902;25.336;2023-04-30T04:19:35;96947.59;;;9.99;100.00
34297;BME280;20564;42.902;25.336;2023-04-30T04:22:06;96938.72;;;10.00;100.00
34297;BME280;20564;42.902;25.336;2023-04-30T04:24:34;96941.75;;;10.05;100.00
34297;BME280;20564;42.902;25.336;2023-04-30T04:27:03;96945.88;;;10.07;100.00
34297;BME280;20564;42.902;25.336;2023-04-30T04:29:31;96939.81;;;10.07;100.00
34297;BME280;20564;42.902;25.336;2023-04-30T04:32:00;96948.69;;;10.06;100.00
34297;BME280;20564;42.902;25.336;2023-04-30T04:34:33;96950.88;;;10.10;100.00
34297;BME280;20564;42.902;25.336;2023-04-30T04:37:01;96956.63;;;10.24;100.00
34297;BME280;20564;42.902;25.336;2023-04-30T04:39:29;96952.06;;;10.35;100.00
34297;BME280;20564;42.902;25.336;2023-04-30T04:41:57;96951.97;;;10.55;100.00
34297;BME280;20564;42.902;25.336;2023-04-30T04:44:24;96944.66;;;10.76;100.00
34297;BME280;20564;42.902;25.336;2023-04-30T04:46:53;96949.81;;;10.96;97.58
34297;BME280;20564;42.902;25.336;2023-04-30T04:49:23;96946.81;;;11.08;93.43
34297;BME280;20564;42.902;25.336;2023-04-30T04:51:50;96950.06;;;11.20;90.41
34297;BME280;20564;42.902;25.336;2023-04-30T04:54:18;96952.75;;;11.28;90.09
34297;BME280;20564;42.902;25.336;2023-04-30T04:56:48;96950.72;;;11.40;88.51
34297;BME280;20564;42.902;25.336;2023-04-30T04:59:16;96957.56;;;11.51;88.77
34297;BME280;20564;42.902;25.336;2023-04-30T05:01:45;96953.34;;;11.58;86.62
34297;BME280;20564;42.902;25.336;2023-04-30T05:04:12;96956.81;;;11.58;87.13
34297;BME280;20564;42.902;25.336;2023-04-30T05:06:40;96959.69;;;11.65;86.49
34297;BME280;20564;42.902;25.336;2023-04-30T05:09:08;96959.81;;;11.81;84.87
34297;BME280;20564;42.902;25.336;2023-04-30T05:11:37;96955.63;;;11.89;85.26
34297;BME280;20564;42.902;25.336;2023-04-30T05:14:04;96953.03;;;11.97;82.95
34297;BME280;20564;42.902;25.336;2023-04-30T05:16:32;96959.34;;;12.04;81.51
34297;BME280;20564;42.902;25.336;2023-04-30T05:18:59;96956.03;;;12.02;82.37
34297;BME280;20564;42.902;25.336;2023-04-30T05:21:27;96958.91;;;12.17;82.17
34297;BME280;20564;42.902;25.336;2023-04-30T05:23:55;96957.81;;;12.27;81.18
34297;BME280;20564;42.902;25.336;2023-04-30T05:26:24;96952.53;;;12.27;80.85
34297;BME280;20564;42.902;25.336;2023-04-30T05:28:51;96953.25;;;12.38;80.48
34297;BME280;20564;42.902;25.336;2023-04-30T05:31:19;96952.09;;;12.74;80.89
34297;BME280;20564;42.902;25.336;2023-04-30T05:33:46;96946.66;;;13.26;77.40
34297;BME280;20564;42.902;25.336;2023-04-30T05:36:14;96948.66;;;13.73;74.65
34297;BME280;20564;42.902;25.336;2023-04-30T05:38:41;96957.59;;;14.05;72.48
34297;BME280;20564;42.902;25.336;2023-04-30T05:41:11;96946.56;;;14.49;71.89
34297;BME280;20564;42.902;25.336;2023-04-30T05:43:39;96950.72;;;14.91;69.82
34297;BME280;20564;42.902;25.336;2023-04-30T05:46:06;96944.34;;;15.31;67.40
34297;BME280;20564;42.902;25.336;2023-04-30T05:48:33;96948.28;;;15.66;64.61
34297;BME280;20564;42.902;25.336;2023-04-30T05:51:01;96938.47;;;16.05;63.15
34297;BME280;20564;42.902;25.336;2023-04-30T05:53:28;96943.56;;;16.44;59.10
34297;BME280;20564;42.902;25.336;2023-04-30T05:55:55;96937.16;;;16.68;59.65
34297;BME280;20564;42.902;25.336;2023-04-30T05:58:22;96937.78;;;16.85;59.21
34297;BME280;20564;42.902;25.336;2023-04-30T06:00:50;96930.03;;;17.20;56.07
34297;BME280;20564;42.902;25.336;2023-04-30T06:03:18;96931.56;;;17.50;56.67
34297;BME280;20564;42.902;25.336;2023-04-30T06:05:46;96938.88;;;17.85;54.67
34297;BME280;20564;42.902;25.336;2023-04-30T06:08:14;96937.00;;;18.06;54.45
34297;BME280;20564;42.902;25.336;2023-04-30T06:10:41;96935.38;;;18.12;53.12
34297;BME280;20564;42.902;25.336;2023-04-30T06:13:08;96936.00;;;18.42;52.75
34297;BME280;20564;42.902;25.336;2023-04-30T06:15:35;96933.97;;;18.79;51.10
34297;BME280;20564;42.902;25.336;2023-04-30T06:18:02;96938.84;;;19.17;49.48
34297;BME280;20564;42.902;25.336;2023-04-30T06:20:30;96938.06;;;19.36;48.39
34297;BME280;20564;42.902;25.336;2023-04-30T06:22:58;96928.59;;;19.34;47.89
34297;BME280;20564;42.902;25.336;2023-04-30T06:25:26;96930.31;;;19.55;48.65
34297;BME280;20564;42.902;25.336;2023-04-30T06:27:53;96939.81;;;19.77;44.86
34297;BME280;20564;42.902;25.336;2023-04-30T06:30:20;96929.34;;;19.82;45.61
34297;BME280;20564;42.902;25.336;2023-04-30T06:32:47;96930.56;;;19.73;47.13
34297;BME280;20564;42.902;25.336;2023-04-30T06:35:14;96934.03;;;19.60;47.05
34297;BME280;20564;42.902;25.336;2023-04-30T06:37:45;96931.56;;;19.85;46.22
34297;BME280;20564;42.902;25.336;2023-04-30T06:40:13;96934.03;;;20.07;46.43
34297;BME280;20564;42.902;25.336;2023-04-30T06:42:40;96923.34;;;20.33;44.86
34297;BME280;20564;42.902;25.336;2023-04-30T06:45:08;96913.47;;;20.40;43.42
34297;BME280;20564;42.902;25.336;2023-04-30T06:47:35;96915.13;;;20.28;42.79
34297;BME280;20564;42.902;25.336;2023-04-30T06:50:04;96925.59;;;20.36;43.80
34297;BME280;20564;42.902;25.336;2023-04-30T06:52:32;96903.59;;;20.34;44.07
34297;BME280;20564;42.902;25.336;2023-04-30T06:55:01;96915.91;;;20.42;44.35
34297;BME280;20564;42.902;25.336;2023-04-30T06:57:28;96907.25;;;20.46;43.11
34297;BME280;20564;42.902;25.336;2023-04-30T06:59:55;96919.41;;;20.62;43.42
34297;BME280;20564;42.902;25.336;2023-04-30T07:02:22;96905.56;;;20.72;41.28
34297;BME280;20564;42.902;25.336;2023-04-30T07:04:50;96914.22;;;20.81;41.60
34297;BME280;20564;42.902;25.336;2023-04-30T07:07:17;96915.53;;;21.10;40.57
34297;BME280;20564;42.902;25.336;2023-04-30T07:09:44;96915.75;;;21.02;39.88
34297;BME280;20564;42.902;25.336;2023-04-30T07:12:15;96914.06;;;21.14;38.74
34297;BME280;20564;42.902;25.336;2023-04-30T07:14:44;96926.66;;;21.07;40.66
34297;BME280;20564;42.902;25.336;2023-04-30T07:17:11;96925.94;;;21.25;39.84
34297;BME280;20564;42.902;25.336;2023-04-30T07:19:39;96920.69;;;20.98;39.87
34297;BME280;20564;42.902;25.336;2023-04-30T07:22:09;96918.63;;;21.07;40.29
34297;BME280;20564;42.902;25.336;2023-04-30T07:24:37;96923.50;;;21.16;39.01
34297;BME280;20564;42.902;25.336;2023-04-30T07:27:04;96923.72;;;21.15;39.65
34297;BME280;20564;42.902;25.336;2023-04-30T07:29:34;96915.13;;;21.45;38.48
34297;BME280;20564;42.902;25.336;2023-04-30T07:32:00;96922.56;;;21.74;37.79
34297;BME280;20564;42.902;25.336;2023-04-30T07:34:29;96920.31;;;21.71;37.54
34297;BME280;20564;42.902;25.336;2023-04-30T07:36:58;96922.06;;;21.59;37.99
34297;BME280;20564;42.902;25.336;2023-04-30T07:39:25;96920.25;;;21.78;37.99
34297;BME280;20564;42.902;25.336;2023-04-30T07:41:52;96913.66;;;21.80;38.30
34297;BME280;20564;42.902;25.336;2023-04-30T07:44:19;96926.78;;;21.88;37.42
34297;BME280;20564;42.902;25.336;2023-04-30T07:46:47;96922.75;;;22.29;37.74
34297;BME280;20564;42.902;25.336;2023-04-30T07:49:14;96931.56;;;22.55;37.94
34297;BME280;20564;42.902;25.336;2023-04-30T07:51:42;96929.19;;;22.47;37.19
34297;BME280;20564;42.902;25.336;2023-04-30T07:54:09;96918.81;;;22.50;37.39
34297;BME280;20564;42.902;25.336;2023-04-30T07:56:37;96924.19;;;22.69;37.12
34297;BME280;20564;42.902;25.336;2023-04-30T07:59:05;96925.75;;;22.76;35.93
34297;BME280;20564;42.902;25.336;2023-04-30T08:01:32;96939.63;;;22.73;35.78
34297;BME280;20564;42.902;25.336;2023-04-30T08:04:02;96925.63;;;22.90;35.88
34297;BME280;20564;42.902;25.336;2023-04-30T08:06:32;96924.16;;;22.94;36.00
34297;BME280;20564;42.902;25.336;2023-04-30T08:08:59;96928.94;;;22.67;36.05
34297;BME280;20564;42.902;25.336;2023-04-30T08:11:26;96927.38;;;22.77;36.38
34297;BME280;20564;42.902;25.336;2023-04-30T08:13:53;96932.28;;;22.44;36.58
34297;BME280;20564;42.902;25.336;2023-04-30T08:16:23;96935.22;;;22.17;37.13
34297;BME280;20564;42.902;25.336;2023-04-30T08:18:50;96921.28;;;22.52;36.48
34297;BME280;20564;42.902;25.336;2023-04-30T08:21:17;96924.56;;;22.72;36.17
34297;BME280;20564;42.902;25.336;2023-04-30T08:23:44;96924.63;;;22.84;36.75
34297;BME280;20564;42.902;25.336;2023-04-30T08:26:15;96927.41;;;22.96;36.88
34297;BME280;20564;42.902;25.336;2023-04-30T08:28:43;96924.88;;;23.01;36.14
34297;BME280;20564;42.902;25.336;2023-04-30T08:31:11;96926.06;;;23.05;35.54
34297;BME280;20564;42.902;25.336;2023-04-30T08:33:39;96922.25;;;23.13;35.68
34297;BME280;20564;42.902;25.336;2023-04-30T08:36:07;96920.78;;;23.28;35.07
34297;BME280;20564;42.902;25.336;2023-04-30T08:38:37;96906.41;;;23.53;34.86
34297;BME280;20564;42.902;25.336;2023-04-30T08:43:38;96913.47;;;23.35;36.64
34297;BME280;20564;42.902;25.336;2023-04-30T08:46:05;96910.66;;;23.30;34.25
34297;BME280;20564;42.902;25.336;2023-04-30T08:48:33;96916.72;;;23.26;35.44
34297;BME280;20564;42.902;25.336;2023-04-30T08:51:00;96915.53;;;23.52;36.28
34297;BME280;20564;42.902;25.336;2023-04-30T08:53:30;96914.34;;;23.78;36.03
34297;BME280;20564;42.902;25.336;2023-04-30T08:56:02;96918.81;;;23.96;33.51
34297;BME280;20564;42.902;25.336;2023-04-30T08:58:33;96919.00;;;23.82;32.72
34297;BME280;20564;42.902;25.336;2023-04-30T09:01:01;96916.75;;;23.38;32.95
34297;BME280;20564;42.902;25.336;2023-04-30T09:03:30;96910.03;;;22.80;34.42
34297;BME280;20564;42.902;25.336;2023-04-30T09:05:57;96911.28;;;22.77;35.07
34297;BME280;20564;42.902;25.336;2023-04-30T09:08:45;96915.63;;;22.78;35.32
34297;BME280;20564;42.902;25.336;2023-04-30T09:11:29;96903.09;;;22.91;36.10
34297;BME280;20564;42.902;25.336;2023-04-30T09:14:00;96910.53;;;22.88;36.66
34297;BME280;20564;42.902;25.336;2023-04-30T09:16:37;96913.53;;;22.44;36.44
34297;BME280;20564;42.902;25.336;2023-04-30T09:19:23;96922.91;;;22.34;37.07
34297;BME280;20564;42.902;25.336;2023-04-30T09:21:52;96912.63;;;22.31;36.18
34297;BME280;20564;42.902;25.336;2023-04-30T09:24:22;96905.34;;;22.38;37.98
34297;BME280;20564;42.902;25.336;2023-04-30T09:26:49;96898.09;;;22.39;37.26
34297;BME280;20564;42.902;25.336;2023-04-30T09:29:17;96904.94;;;22.17;37.98
34297;BME280;20564;42.902;25.336;2023-04-30T09:31:46;96900.66;;;22.09;36.39
34297;BME280;20564;42.902;25.336;2023-04-30T09:34:32;96890.38;;;22.49;37.56
34297;BME280;20564;42.902;25.336;2023-04-30T09:37:00;96894.19;;;22.97;36.82
34297;BME280;20564;42.902;25.336;2023-04-30T09:39:28;96903.34;;;23.38;36.23
34297;BME280;20564;42.902;25.336;2023-04-30T09:42:09;96894.59;;;23.42;36.22
34297;BME280;20564;42.902;25.336;2023-04-30T09:44:38;96889.22;;;23.12;35.79
34297;BME280;20564;42.902;25.336;2023-04-30T09:47:17;96883.66;;;22.95;36.83
34297;BME280;20564;42.902;25.336;2023-04-30T09:49:49;96898.31;;;22.56;37.62
34297;BME280;20564;42.902;25.336;2023-04-30T09:52:20;96891.50;;;22.42;37.68
34297;BME280;20564;42.902;25.336;2023-04-30T09:54:47;96894.59;;;22.38;38.16
34297;BME280;20564;42.902;25.336;2023-04-30T09:57:15;96883.03;;;21.95;38.18
34297;BME280;20564;42.902;25.336;2023-04-30T09:59:44;96890.59;;;21.48;40.29
34297;BME280;20564;42.902;25.336;2023-04-30T10:02:15;96903.81;;;21.04;40.40
34297;BME280;20564;42.902;25.336;2023-04-30T10:04:48;96884.56;;;20.82;40.91
34297;BME280;20564;42.902;25.336;2023-04-30T10:07:24;96894.69;;;20.67;42.08
34297;BME280;20564;42.902;25.336;2023-04-30T10:10:09;96886.59;;;20.80;42.43
34297;BME280;20564;42.902;25.336;2023-04-30T10:13:03;96889.53;;;20.72;41.74
34297;BME280;20564;42.902;25.336;2023-04-30T10:15:42;96888.94;;;20.63;42.34
34297;BME280;20564;42.902;25.336;2023-04-30T10:18:18;96887.47;;;20.74;43.22
34297;BME280;20564;42.902;25.336;2023-04-30T10:20:47;96881.66;;;20.84;42.49
34297;BME280;20564;42.902;25.336;2023-04-30T10:23:17;96881.56;;;21.04;42.10
34297;BME280;20564;42.902;25.336;2023-04-30T10:25:44;96881.84;;;21.27;41.15
34297;BME280;20564;42.902;25.336;2023-04-30T10:28:18;96869.69;;;21.63;41.19
34297;BME280;20564;42.902;25.336;2023-04-30T10:30:46;96869.03;;;21.92;39.41
34297;BME280;20564;42.902;25.336;2023-04-30T10:33:52;96864.66;;;22.23;39.48
34297;BME280;20564;42.902;25.336;2023-04-30T10:36:31;96862.03;;;21.91;37.69
34297;BME280;20564;42.902;25.336;2023-04-30T10:39:00;96870.19;;;21.78;39.46
34297;BME280;20564;42.902;25.336;2023-04-30T10:41:28;96866.31;;;21.74;38.32
34297;BME280;20564;42.902;25.336;2023-04-30T10:43:57;96863.56;;;21.56;39.37
34297;BME280;20564;42.902;25.336;2023-04-30T10:46:27;96869.25;;;21.34;39.60
34297;BME280;20564;42.902;25.336;2023-04-30T10:48:55;96865.00;;;21.20;39.18
34297;BME280;20564;42.902;25.336;2023-04-30T10:51:22;96870.63;;;21.12;41.70
34297;BME280;20564;42.902;25.336;2023-04-30T10:53:50;96872.09;;;21.08;39.95
34297;BME280;20564;42.902;25.336;2023-04-30T10:56:31;96860.22;;;21.35;39.46
34297;BME280;20564;42.902;25.336;2023-04-30T10:58:59;96857.03;;;21.45;40.10
34297;BME280;20564;42.902;25.336;2023-04-30T11:01:28;96848.19;;;21.45;37.69
34297;BME280;20564;42.902;25.336;2023-04-30T11:04:07;96858.63;;;21.53;36.14
34297;BME280;20564;42.902;25.336;2023-04-30T11:07:08;96841.00;;;21.70;35.42
34297;BME280;20564;42.902;25.336;2023-04-30T11:09:38;96845.44;;;21.58;35.70
34297;BME280;20564;42.902;25.336;2023-04-30T11:12:19;96842.56;;;21.53;36.34
34297;BME280;20564;42.902;25.336;2023-04-30T11:15:10;96851.50;;;21.47;37.83
34297;BME280;20564;42.902;25.336;2023-04-30T11:17:38;96854.59;;;21.43;39.64
34297;BME280;20564;42.902;25.336;2023-04-30T11:20:05;96854.63;;;21.37;37.51
34297;BME280;20564;42.902;25.336;2023-04-30T11:22:33;96855.59;;;21.11;38.78
34297;BME280;20564;42.902;25.336;2023-04-30T11:25:08;96856.53;;;20.91;36.13
34297;BME280;20564;42.902;25.336;2023-04-30T11:27:37;96852.31;;;20.64;36.96
34297;BME280;20564;42.902;25.336;2023-04-30T11:30:13;96841.84;;;20.62;37.26
34297;BME280;20564;42.902;25.336;2023-04-30T11:32:43;96836.34;;;20.95;36.95
34297;BME280;20564;42.902;25.336;2023-04-30T11:35:16;96832.34;;;21.11;36.56
34297;BME280;20564;42.902;25.336;2023-04-30T11:37:44;96829.78;;;21.23;37.14
34297;BME280;20564;42.902;25.336;2023-04-30T11:40:12;96820.81;;;21.42;36.84
34297;BME280;20564;42.902;25.336;2023-04-30T11:42:41;96822.91;;;21.40;36.94
34297;BME280;20564;42.902;25.336;2023-04-30T11:45:16;96824.16;;;21.31;37.22
34297;BME280;20564;42.902;25.336;2023-04-30T11:48:03;96819.44;;;21.33;36.31
34297;BME280;20564;42.902;25.336;2023-04-30T11:50:32;96828.69;;;21.37;36.71
34297;BME280;20564;42.902;25.336;2023-04-30T11:52:59;96825.16;;;21.43;36.20
34297;BME280;20564;42.902;25.336;2023-04-30T11:55:31;96827.88;;;21.30;35.65
34297;BME280;20564;42.902;25.336;2023-04-30T11:57:58;96837.44;;;21.13;37.33
34297;BME280;20564;42.902;25.336;2023-04-30T12:00:29;96832.56;;;21.10;36.12
34297;BME280;20564;42.902;25.336;2023-04-30T12:02:57;96825.16;;;21.05;37.07
34297;BME280;20564;42.902;25.336;2023-04-30T12:05:26;96834.09;;;20.92;36.21
34297;BME280;20564;42.902;25.336;2023-04-30T12:07:54;96826.53;;;20.76;40.83
34297;BME280;20564;42.902;25.336;2023-04-30T12:10:23;96830.38;;;20.55;41.35
34297;BME280;20564;42.902;25.336;2023-04-30T12:12:53;96831.28;;;20.09;41.31
34297;BME280;20564;42.902;25.336;2023-04-30T12:15:23;96835.84;;;19.89;42.27
34297;BME280;20564;42.902;25.336;2023-04-30T12:17:54;96835.47;;;19.79;45.02
34297;BME280;20564;42.902;25.336;2023-04-30T12:20:25;96833.38;;;19.61;42.72
34297;BME280;20564;42.902;25.336;2023-04-30T12:22:54;96830.06;;;19.52;44.75
34297;BME280;20564;42.902;25.336;2023-04-30T12:25:22;96830.94;;;19.52;45.31
34297;BME280;20564;42.902;25.336;2023-04-30T12:27:53;96831.53;;;19.48;46.10
34297;BME280;20564;42.902;25.336;2023-04-30T12:30:21;96822.28;;;19.57;46.09
34297;BME280;20564;42.902;25.336;2023-04-30T12:32:50;96818.59;;;19.58;45.60
34297;BME280;20564;42.902;25.336;2023-04-30T12:35:20;96823.09;;;19.58;44.04
34297;BME280;20564;42.902;25.336;2023-04-30T12:37:49;96822.47;;;19.56;44.86
34297;BME280;20564;42.902;25.336;2023-04-30T12:40:19;96817.34;;;19.47;43.00
34297;BME280;20564;42.902;25.336;2023-04-30T12:42:46;96823.09;;;19.18;42.78
34297;BME280;20564;42.902;25.336;2023-04-30T12:45:52;96823.06;;;19.11;42.76
34297;BME280;20564;42.902;25.336;2023-04-30T12:48:24;96817.94;;;19.10;43.71
34297;BME280;20564;42.902;25.336;2023-04-30T12:51:00;96810.38;;;19.13;42.88
34297;BME280;20564;42.902;25.336;2023-04-30T12:53:30;96812.44;;;19.31;44.44
34297;BME280;20564;42.902;25.336;2023-04-30T12:56:07;96813.25;;;19.38;42.19
34297;BME280;20564;42.902;25.336;2023-04-30T12:58:42;96814.66;;;19.34;43.50
34297;BME280;20564;42.902;25.336;2023-04-30T13:01:12;96815.88;;;19.12;43.76
34297;BME280;20564;42.902;25.336;2023-04-30T13:03:40;96812.81;;;19.01;43.97
34297;BME280;20564;42.902;25.336;2023-04-30T13:06:07;96813.19;;;18.92;45.15
34297;BME280;20564;42.902;25.336;2023-04-30T13:08:36;96813.19;;;18.92;44.85
34297;BME280;20564;42.902;25.336;2023-04-30T13:11:23;96808.66;;;18.86;44.15
34297;BME280;20564;42.902;25.336;2023-04-30T13:13:52;96810.94;;;18.95;44.56
34297;BME280;20564;42.902;25.336;2023-04-30T13:16:21;96809.13;;;19.09;42.99
34297;BME280;20564;42.902;25.336;2023-04-30T13:18:50;96804.22;;;19.39;44.41
34297;BME280;20564;42.902;25.336;2023-04-30T13:21:18;96800.28;;;19.88;43.63